Albers, Illinois
Current Conditions -  °F | °C
As of 11:58 PM on Wednesday 17 Dec 2014 (Local Time) from KBLV Reporting Station
Overcast Overcast  
Wind Chill: 24°   Ceiling: 9000
Heat Index: 30°   Visibility: 10mi
Dew Point: 27°   Wind: 6mph
Humidity: 88%   Direction: 60°ENE
Pressure: 30.31"   Gusts: NA
Location:  38.54°N, 89.61°W
Report Text: KBLV 180558Z AUTO 06005KT 10SM OVC090 M01/M03 A3031 RMK AO2 SLP272 T10131030 10012 21013 400481013 50004
Loading
Personal Weather Stations






























Interactive Weather Map New forecast layout! Learn more

10-Day Weather Forecast

Advertisements
Track Severe Weather on mobile